Time;durP1;ratioP1;P1;durP2;ratioP2;P2;SDS_P1;SDS_P2;PMS_P1;PMS_P2;Temp;Humidity;BMP_temperature;BMP_pressure;BME280_temperature;BME280_humidity;BME280_pressure;Samples;Min_cycle;Max_cycle;Signal;HPM_P1;HPM_P2
2021/12/15 00:01:07;;;;;;;9.00;8.30;;;;;;;22.88;28.60;95603.22;4947336;28;103385;-47
2021/12/15 00:03:33;;;;;;;9.10;8.40;;;;;;;22.84;28.67;95597.66;4961974;28;102876;-47
2021/12/15 00:05:59;;;;;;;8.77;8.07;;;;;;;22.87;28.93;95597.09;4959336;28;102852;-47
2021/12/15 00:08:24;;;;;;;8.90;8.20;;;;;;;22.88;28.82;95603.22;4958378;28;102807;-47
2021/12/15 00:10:51;;;;;;;9.07;8.37;;;;;;;22.88;28.52;95601.34;4961457;28;102936;-47
2021/12/15 00:13:18;;;;;;;8.23;7.63;;;;;;;22.87;28.62;95598.97;4961536;28;102723;-47
2021/12/15 00:15:46;;;;;;;8.70;8.00;;;;;;;22.88;28.81;95609.34;4961706;28;103622;-47
2021/12/15 00:18:12;;;;;;;8.73;8.10;;;;;;;22.85;28.87;95601.16;4956592;28;103856;-47
2021/12/15 00:20:39;;;;;;;9.10;8.40;;;;;;;22.86;28.49;95610.72;4960630;28;102726;-47
2021/12/15 00:23:04;;;;;;;9.10;8.40;;;;;;;22.86;28.33;95611.50;4961911;28;102755;-47
2021/12/15 00:25:34;;;;;;;9.03;8.30;;;;;;;22.86;28.49;95616.06;4961378;28;102783;-47
2021/12/15 00:27:59;;;;;;;8.87;8.17;;;;;;;22.87;28.60;95609.63;4960275;28;103554;-47
2021/12/15 00:30:26;;;;;;;8.50;7.80;;;;;;;22.86;29.10;95606.19;4957882;28;102816;-47
2021/12/15 00:32:52;;;;;;;9.30;8.50;;;;;;;22.86;28.82;95606.19;4961869;28;102713;-47
2021/12/15 00:35:18;;;;;;;8.93;8.23;;;;;;;22.87;28.44;95615.75;4961071;28;102673;-47
2021/12/15 00:37:44;;;;;;;8.70;8.00;;;;;;;22.84;29.11;95610.19;4961998;28;102706;-47
2021/12/15 00:40:12;;;;;;;8.80;8.13;;;;;;;22.87;28.94;95606.97;4957004;28;103168;-47
2021/12/15 00:42:38;;;;;;;8.27;7.63;;;;;;;22.85;28.99;95603.81;4962136;28;103413;-47
2021/12/15 00:45:06;;;;;;;8.90;8.20;;;;;;;22.85;28.71;95599.28;4961046;28;102746;-47
2021/12/15 00:47:32;;;;;;;8.40;7.80;;;;;;;22.86;28.48;95594.75;4961045;28;103252;-47
2021/12/15 00:49:57;;;;;;;7.80;7.20;;;;;;;22.86;28.66;95602.72;4961221;28;103151;-47
2021/12/15 00:52:23;;;;;;;8.37;7.67;;;;;;;22.88;28.81;95595.25;4956522;28;102944;-47
2021/12/15 00:54:49;;;;;;;8.40;7.70;;;;;;;22.86;28.57;95600.84;4961617;28;103249;-48
2021/12/15 00:57:14;;;;;;;8.53;7.83;;;;;;;22.87;28.77;95598.97;4960365;28;103898;-47
2021/12/15 00:59:40;;;;;;;8.70;8.03;;;;;;;22.87;28.72;95597.09;4960985;28;104219;-47
2021/12/15 01:02:07;;;;;;;8.27;7.63;;;;;;;22.88;28.74;95598.69;4969277;28;103398;-47
2021/12/15 01:04:34;;;;;;;7.97;7.30;;;;;;;22.87;28.49;95597.09;4960086;28;102702;-47
2021/12/15 01:07:06;;;;;;;8.73;8.03;;;;;;;22.86;28.76;95597.41;4960168;28;102842;-47
2021/12/15 01:09:39;;;;;;;8.90;8.20;;;;;;;22.85;28.71;95591.28;4960604;28;102662;-47
2021/12/15 01:12:14;;;;;;;8.93;8.13;;;;;;;22.86;28.57;95586.75;4958318;28;102700;-47
2021/12/15 01:20:29;;;;;;;9.10;8.30;;;;;;;22.85;28.73;95591.28;4951231;28;103523;-47
2021/12/15 01:22:58;;;;;;;7.73;7.13;;;;;;;22.86;28.44;95587.53;4961003;28;102812;-47
2021/12/15 01:25:31;;;;;;;8.10;7.50;;;;;;;22.85;28.50;95585.97;4954149;28;102790;-47
2021/12/15 01:27:57;;;;;;;7.80;7.20;;;;;;;22.84;28.39;95592.34;4960286;28;103515;-47
2021/12/15 01:30:27;;;;;;;8.00;7.40;;;;;;;22.85;28.62;95591.28;4960597;28;102811;-47
2021/12/15 01:32:56;;;;;;;8.13;7.43;;;;;;;22.84;28.32;95589.66;4960532;28;102818;-47
2021/12/15 01:35:22;;;;;;;8.40;7.73;;;;;;;22.84;28.40;95592.34;4954270;28;103240;-47
2021/12/15 01:37:49;;;;;;;8.40;7.70;;;;;;;22.84;28.28;95594.22;4959433;28;103442;-47
2021/12/15 01:40:29;;;;;;;8.33;7.63;;;;;;;22.83;28.47;95589.97;4959818;28;102730;-47
2021/12/15 01:42:54;;;;;;;8.27;7.67;;;;;;;22.85;28.69;95598.50;4959762;28;102854;-47
2021/12/15 01:48:08;;;;;;;8.10;7.50;;;;;;;22.85;28.21;95585.97;4959681;28;102689;-47
2021/12/15 01:50:34;;;;;;;8.40;7.80;;;;;;;22.85;28.17;95590.50;4959678;28;103020;-47
2021/12/15 01:52:59;;;;;;;8.23;7.53;;;;;;;22.84;28.67;95575.56;4960703;28;102817;-47
2021/12/15 01:55:26;;;;;;;8.70;8.00;;;;;;;22.84;28.60;95576.34;4958263;28;102695;-46
2021/12/15 01:57:52;;;;;;;8.10;7.40;;;;;;;22.84;28.09;95581.69;4954227;28;103684;-47
2021/12/15 02:00:43;;;;;;;8.50;7.80;;;;;;;22.85;28.31;95574.50;4959363;28;103165;-47
2021/12/15 02:03:08;;;;;;;8.47;7.80;;;;;;;22.78;28.52;95566.84;4960109;28;103060;-47
2021/12/15 02:05:35;;;;;;;7.40;6.80;;;;;;;22.86;28.40;95578.75;4959520;28;103219;-47
2021/12/15 02:08:01;;;;;;;7.70;7.10;;;;;;;22.85;28.53;95579.84;4953570;28;103517;-46
2021/12/15 02:10:30;;;;;;;8.83;8.10;;;;;;;22.85;28.48;95579.84;4959424;28;102646;-47
2021/12/15 02:12:58;;;;;;;8.83;8.13;;;;;;;22.85;28.53;95579.84;4959982;28;103008;-47
2021/12/15 02:15:31;;;;;;;7.80;7.27;;;;;;;22.85;28.49;95585.16;4958046;28;103380;-47
2021/12/15 02:17:58;;;;;;;7.80;7.20;;;;;;;22.83;28.45;95582.75;4957873;28;106038;-47
2021/12/15 02:20:46;;;;;;;8.10;7.50;;;;;;;22.81;28.01;95572.38;4954209;28;102971;-47
2021/12/15 02:23:15;;;;;;;8.27;7.67;;;;;;;22.86;28.23;95587.53;4960624;28;103102;-47
2021/12/15 02:25:40;;;;;;;8.63;8.03;;;;;;;22.86;28.49;95578.75;4959179;28;103554;-47
2021/12/15 02:28:08;;;;;;;8.57;7.87;;;;;;;22.86;28.23;95568.88;4959400;28;102706;-47
2021/12/15 02:38:39;;;;;;;8.87;8.17;;;;;;;22.85;28.42;95582.50;4959219;28;103113;-47
2021/12/15 02:41:09;;;;;;;9.10;8.40;;;;;;;22.85;28.48;95579.84;4957562;28;103602;-47
2021/12/15 02:43:36;;;;;;;11.77;10.73;;;;;;;22.88;28.37;95588.03;4963749;28;102656;-48
2021/12/15 02:46:03;;;;;;;9.37;8.67;;;;;;;22.83;28.62;95580.09;4962678;28;104720;-48
2021/12/15 02:48:29;;;;;;;9.40;8.70;;;;;;;22.80;28.44;95568.13;4962529;28;103364;-48
2021/12/15 02:50:55;;;;;;;10.37;9.47;;;;;;;22.83;28.66;95590.75;4962853;28;102938;-48
2021/12/15 02:53:21;;;;;;;10.00;9.10;;;;;;;22.81;28.80;95576.91;4958885;28;104233;-48
2021/12/15 02:55:47;;;;;;;9.90;9.10;;;;;;;22.81;28.79;95576.91;4962155;28;103412;-48
2021/12/15 02:58:13;;;;;;;10.47;9.67;;;;;;;22.80;28.51;95572.66;4959128;28;102945;-47
2021/12/15 03:01:03;;;;;;;10.20;9.40;;;;;;;22.81;28.68;95590.22;4962424;28;103349;-48
2021/12/15 03:06:21;;;;;;;9.50;8.70;;;;;;;22.83;28.60;95590.75;4946403;28;102844;-48
2021/12/15 03:08:54;;;;;;;10.27;9.47;;;;;;;22.83;28.41;95581.97;4959602;28;103811;-48
2021/12/15 03:16:51;;;;;;;9.67;8.87;;;;;;;22.78;28.61;95588.94;4967762;28;103528;-48
2021/12/15 03:19:16;;;;;;;10.57;9.77;;;;;;;22.84;28.53;95602.19;4968040;28;103241;-48
2021/12/15 03:21:43;;;;;;;10.77;9.87;;;;;;;22.81;28.53;95596.34;4962129;28;103322;-48
2021/12/15 03:24:18;;;;;;;9.80;9.10;;;;;;;22.78;28.83;95590.81;4962141;28;103253;-48
2021/12/15 03:26:57;;;;;;;11.27;10.37;;;;;;;22.82;28.67;95597.16;4959577;28;104638;-48
2021/12/15 03:37:27;;;;;;;10.03;9.23;;;;;;;22.84;28.74;95597.66;4956945;28;105817;-47
2021/12/15 03:40:17;;;;;;;9.67;8.87;;;;;;;22.86;28.50;95600.06;4955401;28;102931;-47
2021/12/15 03:42:53;;;;;;;8.87;8.17;;;;;;;22.85;28.33;95591.28;4961871;28;102931;-47
2021/12/15 03:45:25;;;;;;;10.03;9.23;;;;;;;22.87;28.81;95597.09;4946671;28;102731;-47
2021/12/15 03:47:53;;;;;;;9.50;8.80;;;;;;;22.88;28.28;95589.91;4955519;28;102809;-48
2021/12/15 03:50:21;;;;;;;9.30;8.60;;;;;;;22.88;28.63;95604.03;4962198;28;103437;-48
2021/12/15 03:52:49;;;;;;;9.97;9.17;;;;;;;22.89;28.39;95600.28;4961577;28;102788;-48
2021/12/15 03:55:26;;;;;;;10.03;9.13;;;;;;;22.91;28.58;95603.44;4961357;28;103362;-48
2021/12/15 03:57:52;;;;;;;10.03;9.23;;;;;;;22.91;28.56;95611.44;4939096;28;106147;-47
2021/12/15 04:00:18;;;;;;;9.13;8.43;;;;;;;22.90;28.25;95612.50;4961314;28;103045;-47
2021/12/15 04:02:45;;;;;;;9.37;8.60;;;;;;;22.93;28.24;95622.59;4961045;28;103163;-48
2021/12/15 04:05:14;;;;;;;10.00;8.80;;;;;;;22.91;28.81;95621.28;4961853;28;102706;-50
2021/12/15 04:07:39;;;;;;;8.83;8.03;;;;;;;22.88;28.52;95625.34;4961539;28;102678;-49
2021/12/15 04:10:08;;;;;;;9.47;8.70;;;;;;;22.89;28.39;95626.91;4956536;28;103234;-50
2021/12/15 04:12:34;;;;;;;8.60;7.80;;;;;;;22.91;28.71;95639.94;4961499;28;102948;-49
2021/12/15 04:17:44;;;;;;;10.10;9.20;;;;;;;22.83;28.40;95643.25;4957491;28;102959;-50
2021/12/15 04:20:13;;;;;;;9.27;8.47;;;;;;;22.79;28.48;95645.66;4953226;28;103441;-50
2021/12/15 04:22:39;;;;;;;8.40;7.73;;;;;;;22.75;28.66;95634.81;4961426;28;103133;-50
2021/12/15 04:25:07;;;;;;;9.23;8.53;;;;;;;22.72;28.39;95642.59;4960800;28;102825;-50
2021/12/15 04:27:33;;;;;;;9.63;8.73;;;;;;;22.70;28.37;95640.22;4961055;28;102961;-50
2021/12/15 04:29:58;;;;;;;9.10;8.40;;;;;;;22.71;27.71;95646.34;4960759;28;102755;-50
2021/12/15 04:32:33;;;;;;;9.30;8.60;;;;;;;22.66;27.83;95636.53;4955178;28;103656;-48
2021/12/15 04:34:59;;;;;;;10.70;9.70;;;;;;;22.33;27.27;95634.84;4962045;28;102816;-48
2021/12/15 04:37:24;;;;;;;10.60;9.77;;;;;;;22.18;27.28;95639.31;4961381;28;103223;-48
2021/12/15 04:39:50;;;;;;;10.87;9.93;;;;;;;22.12;26.84;95642.28;4961474;28;103220;-47
2021/12/15 04:42:18;;;;;;;10.23;9.33;;;;;;;22.11;26.46;95646.81;4953993;28;106555;-47
2021/12/15 04:44:45;;;;;;;11.40;10.20;;;;;;;22.16;26.84;95645.97;4959824;28;102824;-46
2021/12/15 04:47:11;;;;;;;11.30;10.23;;;;;;;22.21;27.02;95648.59;4959999;28;102668;-46
2021/12/15 04:49:47;;;;;;;13.27;11.87;;;;;;;22.24;26.90;95648.00;4944188;28;104137;-46
2021/12/15 04:52:15;;;;;;;11.00;10.10;;;;;;;22.29;26.33;95649.81;4957554;28;103111;-47
2021/12/15 04:54:42;;;;;;;10.23;9.30;;;;;;;22.24;26.55;95648.00;4951838;28;102771;-47
2021/12/15 04:57:09;;;;;;;10.00;9.10;;;;;;;22.22;26.91;95650.16;4960357;28;102901;-47
2021/12/15 04:59:36;;;;;;;10.27;9.27;;;;;;;22.21;27.25;95652.03;4959615;28;103338;-47
2021/12/15 05:02:03;;;;;;;10.30;9.37;;;;;;;21.93;26.91;95643.00;4956558;28;102842;-47
2021/12/15 05:04:28;;;;;;;12.10;8.70;;;;;;;22.13;26.88;95646.53;4953671;28;103277;-48
2021/12/15 05:06:54;;;;;;;8.93;8.10;;;;;;;22.32;27.10;95650.03;4956891;28;102774;-51
2021/12/15 05:09:20;;;;;;;9.70;8.70;;;;;;;22.40;26.92;95648.63;4951080;28;102793;-47
2021/12/15 05:11:47;;;;;;;10.87;9.87;;;;;;;22.50;27.17;95646.59;4953549;28;103665;-47
2021/12/15 05:14:14;;;;;;;9.33;8.40;;;;;;;22.59;27.21;95654.75;4957927;28;103029;-47
2021/12/15 05:16:39;;;;;;;8.80;8.10;;;;;;;22.65;27.76;95664.25;4954059;28;102771;-47
2021/12/15 05:19:05;;;;;;;10.20;9.37;;;;;;;22.71;27.31;95664.97;4959733;28;102651;-48
2021/12/15 05:21:31;;;;;;;9.23;8.43;;;;;;;22.71;26.94;95655.13;4958239;28;103122;-47
2021/12/15 05:24:02;;;;;;;10.00;9.00;;;;;;;22.74;27.54;95662.53;4959989;28;103535;-46
2021/12/15 05:26:29;;;;;;;9.70;8.90;;;;;;;22.65;27.50;95660.78;4954563;28;103057;-47
2021/12/15 05:28:55;;;;;;;9.80;8.90;;;;;;;22.57;28.03;95658.78;4945881;28;103070;-47
2021/12/15 05:31:20;;;;;;;9.80;8.80;;;;;;;22.55;27.84;95656.41;4938172;28;102792;-47
2021/12/15 05:33:46;;;;;;;11.30;10.40;;;;;;;22.56;27.90;95668.63;4939923;28;102860;-47
2021/12/15 05:36:12;;;;;;;9.70;9.00;;;;;;;22.55;28.25;95663.59;4940188;28;102994;-47
2021/12/15 05:38:38;;;;;;;13.20;12.10;;;;;;;22.55;27.94;95666.28;4935338;28;106401;-47
2021/12/15 05:41:03;;;;;;;10.80;9.80;;;;;;;22.53;28.18;95666.56;4940633;28;103162;-47
2021/12/15 05:43:29;;;;;;;12.33;11.33;;;;;;;22.52;28.37;95663.09;4940692;28;102827;-47
2021/12/15 05:45:54;;;;;;;10.80;9.90;;;;;;;22.51;28.18;95672.16;4940342;28;102827;-47
2021/12/15 05:48:20;;;;;;;12.57;11.57;;;;;;;22.51;28.17;95674.84;4935099;28;102826;-47
2021/12/15 05:50:49;;;;;;;13.07;12.07;;;;;;;22.49;28.38;95666.31;4940935;28;102799;-47
2021/12/15 05:53:14;;;;;;;10.73;9.83;;;;;;;22.49;28.41;95666.31;4939841;28;102796;-47
2021/12/15 05:55:42;;;;;;;11.37;10.47;;;;;;;22.48;28.08;95664.72;4940837;28;103387;-47
2021/12/15 05:58:08;;;;;;;11.17;10.27;;;;;;;22.50;27.95;95667.91;4939997;28;103976;-47
2021/12/15 06:00:37;;;;;;;13.10;11.93;;;;;;;22.50;27.91;95670.56;4935360;28;103394;-47
2021/12/15 06:03:04;;;;;;;14.40;13.20;;;;;;;22.50;28.23;95678.53;4940996;28;102828;-47
2021/12/15 06:05:31;;;;;;;12.87;11.77;;;;;;;22.49;28.16;95687.63;4940069;28;102632;-48
2021/12/15 06:07:57;;;;;;;13.60;12.50;;;;;;;22.47;28.27;95679.13;4940071;28;104212;-47
2021/12/15 06:10:25;;;;;;;12.33;11.33;;;;;;;22.45;28.25;95675.97;4935134;28;103721;-52
2021/12/15 06:12:52;;;;;;;10.83;10.03;;;;;;;22.45;27.97;95675.97;4939759;28;102865;-51
2021/12/15 06:15:22;;;;;;;11.33;10.43;;;;;;;22.46;28.33;95671.44;4939060;28;102978;-51
2021/12/15 06:17:56;;;;;;;11.13;10.23;;;;;;;22.44;28.06;95669.06;4939848;28;103827;-51
2021/12/15 06:20:22;;;;;;;11.63;10.67;;;;;;;22.43;28.02;95672.00;4940284;28;102680;-51
2021/12/15 06:22:48;;;;;;;11.30;10.40;;;;;;;22.42;28.42;95676.53;4934847;28;104894;-52
2021/12/15 06:25:14;;;;;;;11.27;10.37;;;;;;;22.43;27.88;95687.97;4939650;28;104454;-51
2021/12/15 06:27:40;;;;;;;11.87;10.97;;;;;;;22.45;28.16;95685.81;4937813;28;105801;-51
2021/12/15 06:30:08;;;;;;;11.27;10.40;;;;;;;22.43;28.10;95688.78;4952284;28;103531;-52
2021/12/15 06:32:34;;;;;;;11.93;11.03;;;;;;;22.43;28.50;95680.78;4952532;28;102845;-51
2021/12/15 06:35:00;;;;;;;10.77;9.93;;;;;;;22.42;27.83;95681.84;4958913;28;103129;-51
2021/12/15 06:37:26;;;;;;;12.00;11.00;;;;;;;22.43;28.36;95683.44;4959117;28;102714;-51
2021/12/15 06:39:52;;;;;;;10.50;9.67;;;;;;;22.43;28.20;95683.44;4957509;28;102917;-51
2021/12/15 06:42:17;;;;;;;10.93;10.03;;;;;;;22.39;28.28;95679.78;4959791;28;102730;-51
2021/12/15 06:44:44;;;;;;;11.87;10.87;;;;;;;22.42;28.57;95686.41;4953723;28;102746;-50
2021/12/15 07:00:30;;;;;;;10.00;9.20;;;;;;;22.38;28.48;95691.50;4955504;28;103000;-51
2021/12/15 07:02:57;;;;;;;10.73;9.83;;;;;;;22.38;28.33;95691.50;4959354;28;102763;-51
2021/12/15 07:05:24;;;;;;;10.03;9.23;;;;;;;22.37;28.47;95687.25;4953415;28;102963;-51
2021/12/15 07:07:52;;;;;;;9.90;9.03;;;;;;;22.37;28.60;95692.56;4959133;28;103296;-51
2021/12/15 07:10:22;;;;;;;10.20;9.30;;;;;;;22.38;28.15;95691.50;4959379;28;102648;-51
2021/12/15 07:12:49;;;;;;;10.07;9.27;;;;;;;22.38;28.21;95698.69;4959709;28;102849;-51
2021/12/15 07:15:16;;;;;;;9.30;8.60;;;;;;;22.37;28.31;95703.22;4958093;28;103226;-51
2021/12/15 07:17:45;;;;;;;9.90;9.10;;;;;;;22.37;28.17;95710.44;4953930;28;103405;-51
2021/12/15 07:22:56;;;;;;;11.87;10.87;;;;;;;22.37;28.45;95705.88;4956473;28;102674;-51
2021/12/15 07:25:22;;;;;;;10.70;9.77;;;;;;;22.41;28.56;95712.22;4962306;28;102763;-53
2021/12/15 07:27:49;;;;;;;10.80;9.90;;;;;;;22.44;29.09;95711.66;4956729;28;104496;-53
2021/12/15 07:30:15;;;;;;;11.37;10.37;;;;;;;22.46;28.84;95714.81;4961861;28;102791;-53
2021/12/15 07:32:42;;;;;;;12.07;10.97;;;;;;;22.43;28.48;95726.03;4962652;28;102936;-53
2021/12/15 07:35:09;;;;;;;12.30;11.30;;;;;;;22.42;28.64;95723.66;4962062;28;102674;-53
2021/12/15 07:37:35;;;;;;;11.40;10.40;;;;;;;22.40;28.31;95726.63;4961459;28;103070;-53
2021/12/15 07:40:05;;;;;;;11.50;10.60;;;;;;;22.50;29.17;95726.47;4957265;28;103108;-53
2021/12/15 07:42:43;;;;;;;12.40;11.40;;;;;;;22.59;28.55;95734.66;4962810;28;103052;-53
2021/12/15 07:45:11;;;;;;;12.47;11.40;;;;;;;22.63;29.22;95727.66;4961502;28;103771;-53
2021/12/15 07:47:37;;;;;;;12.03;11.03;;;;;;;22.66;29.46;95727.09;4962219;28;103522;-53
2021/12/15 07:50:06;;;;;;;10.70;9.83;;;;;;;22.66;28.60;95728.97;4957008;28;103329;-51
2021/12/15 07:52:31;;;;;;;10.70;9.80;;;;;;;22.73;28.45;95732.88;4962260;28;102706;-51
2021/12/15 07:54:57;;;;;;;10.30;9.30;;;;;;;22.74;28.07;95728.34;4961865;28;103188;-51
2021/12/15 07:57:23;;;;;;;10.83;9.83;;;;;;;22.78;27.90;95737.34;4961711;28;103273;-52
2021/12/15 07:59:50;;;;;;;9.60;8.77;;;;;;;22.81;27.84;95742.88;4956503;28;103903;-51
2021/12/15 08:02:16;;;;;;;11.10;9.50;;;;;;;22.84;27.66;95735.41;4962090;28;102699;-51
2021/12/15 08:04:42;;;;;;;9.67;8.77;;;;;;;22.85;27.61;95745.81;4961634;28;103427;-51
2021/12/15 08:07:08;;;;;;;9.60;8.80;;;;;;;22.86;27.61;95747.41;4961881;28;103321;-52
2021/12/15 08:09:34;;;;;;;9.47;8.77;;;;;;;22.87;27.58;95738.31;4962112;28;103836;-51
2021/12/15 08:11:59;;;;;;;9.80;9.00;;;;;;;22.90;27.41;95748.41;4957710;28;103648;-51
2021/12/15 08:14:25;;;;;;;9.40;8.63;;;;;;;22.92;27.42;95750.78;4961202;28;102825;-51
2021/12/15 08:16:51;;;;;;;9.67;8.87;;;;;;;22.91;27.54;95760.66;4961487;28;103291;-51
2021/12/15 08:19:18;;;;;;;9.20;8.50;;;;;;;22.92;27.60;95762.22;4961853;28;102706;-51
2021/12/15 08:21:45;;;;;;;9.10;8.40;;;;;;;22.93;27.25;95761.16;4961681;28;102771;-51
2021/12/15 08:24:11;;;;;;;9.60;8.80;;;;;;;22.94;27.35;95767.28;4956127;28;103665;-51
2021/12/15 08:26:36;;;;;;;8.87;8.17;;;;;;;22.95;27.40;95752.88;4961017;28;103544;-51
2021/12/15 08:29:03;;;;;;;9.63;8.83;;;;;;;22.94;27.41;95762.72;4961209;28;102693;-51
2021/12/15 08:31:28;;;;;;;9.20;8.50;;;;;;;22.95;27.39;95764.31;4962571;28;103072;-51
2021/12/15 08:33:54;;;;;;;8.40;7.73;;;;;;;22.96;27.29;95760.56;4954443;28;103292;-51
2021/12/15 08:36:19;;;;;;;8.30;7.70;;;;;;;22.94;27.18;95773.38;4960885;28;103442;-51
2021/12/15 08:38:48;;;;;;;8.43;7.73;;;;;;;22.98;27.50;95777.06;4961700;28;102579;-51
2021/12/15 08:41:21;;;;;;;8.60;8.00;;;;;;;22.97;27.18;95777.34;4961309;28;102844;-51
2021/12/15 08:43:46;;;;;;;8.53;7.83;;;;;;;22.98;27.35;95785.06;4961071;28;102649;-51
2021/12/15 08:46:24;;;;;;;8.43;7.70;;;;;;;22.98;27.59;95778.94;4956543;28;103287;-51
2021/12/15 08:48:51;;;;;;;7.93;7.33;;;;;;;22.99;27.13;95785.84;4961533;28;102790;-51
2021/12/15 08:51:25;;;;;;;8.30;7.70;;;;;;;22.98;27.33;95784.25;4961305;28;102672;-51
2021/12/15 08:53:51;;;;;;;8.37;7.77;;;;;;;22.97;26.99;95778.16;4960977;28;103497;-51
2021/12/15 08:56:16;;;;;;;8.23;7.63;;;;;;;22.99;26.97;95783.97;4955257;28;103145;-52
2021/12/15 08:58:42;;;;;;;8.20;7.50;;;;;;;22.99;26.90;95777.84;4960926;28;103320;-51
2021/12/15 09:01:08;;;;;;;8.13;7.43;;;;;;;23.00;27.24;95784.75;4961537;28;102478;-51
2021/12/15 09:03:35;;;;;;;7.90;7.30;;;;;;;23.00;27.34;95782.91;4960789;28;102797;-51
2021/12/15 09:06:01;;;;;;;8.10;7.40;;;;;;;23.00;27.31;95782.09;4960218;28;103115;-51
2021/12/15 09:08:28;;;;;;;7.30;6.80;;;;;;;23.00;27.15;95788.22;4956131;28;102775;-52
2021/12/15 09:10:58;;;;;;;7.53;6.93;;;;;;;22.99;27.04;95783.97;4961624;28;103353;-51
2021/12/15 09:13:29;;;;;;;8.27;7.63;;;;;;;22.98;26.79;95779.72;4960366;28;102929;-51
2021/12/15 09:15:55;;;;;;;8.03;7.23;;;;;;;23.00;27.22;95779.44;4961198;28;102943;-51
2021/12/15 09:18:20;;;;;;;7.13;6.63;;;;;;;23.01;27.04;95783.69;4956980;28;104629;-52
2021/12/15 09:20:46;;;;;;;6.83;6.30;;;;;;;23.00;27.02;95788.22;4961816;28;103132;-51
2021/12/15 09:23:16;;;;;;;6.47;5.97;;;;;;;23.00;27.25;95782.91;4961725;28;103594;-51
2021/12/15 09:25:43;;;;;;;8.17;7.50;;;;;;;22.99;27.28;95786.63;4960370;28;102825;-51
2021/12/15 09:28:08;;;;;;;7.10;6.60;;;;;;;23.00;27.20;95792.75;4959211;28;102766;-51
2021/12/15 09:30:43;;;;;;;6.57;6.07;;;;;;;22.99;26.98;95793.84;4957384;28;103194;-51
2021/12/15 09:33:10;;;;;;;7.40;6.80;;;;;;;22.99;27.11;95781.31;4961060;28;102641;-51
2021/12/15 09:35:36;;;;;;;6.50;6.00;;;;;;;22.98;27.16;95782.38;4959944;28;102771;-51
2021/12/15 09:38:13;;;;;;;6.40;5.90;;;;;;;22.99;27.21;95791.97;4960701;28;102740;-52
2021/12/15 09:40:40;;;;;;;7.00;6.50;;;;;;;23.01;27.19;95789.00;4955604;28;102660;-51
2021/12/15 09:43:06;;;;;;;6.80;6.23;;;;;;;23.00;26.86;95790.09;4960431;28;102700;-52
2021/12/15 10:04:29;;;;;;;6.87;6.37;;;;;;;23.01;26.97;95787.19;4960724;28;103353;-51
2021/12/15 10:18:10;;;;;;;6.40;5.90;;;;;;;23.02;27.14;95764.78;4957305;28;103100;-51
2021/12/15 10:20:39;;;;;;;6.10;5.60;;;;;;;23.01;26.97;95763.19;4959867;28;102687;-52
2021/12/15 10:23:08;;;;;;;6.57;6.07;;;;;;;23.01;27.16;95763.19;4960429;28;102848;-51
2021/12/15 10:25:38;;;;;;;6.50;6.00;;;;;;;23.03;26.76;95770.91;4954715;28;103335;-51
2021/12/15 10:28:20;;;;;;;5.60;5.20;;;;;;;23.02;27.14;95762.09;4959848;28;103497;-51
2021/12/15 10:30:55;;;;;;;6.30;5.80;;;;;;;23.02;27.08;95764.78;4958426;28;102747;-51
2021/12/15 10:33:27;;;;;;;6.50;6.00;;;;;;;23.03;27.06;95765.56;4960373;28;102787;-51
2021/12/15 10:35:57;;;;;;;6.60;5.90;;;;;;;23.03;27.05;95768.22;4954646;28;103207;-51
2021/12/15 10:38:30;;;;;;;6.50;6.00;;;;;;;23.01;26.89;95762.38;4959980;28;103254;-51
2021/12/15 10:41:07;;;;;;;6.20;5.70;;;;;;;23.00;26.99;95756.25;4959189;28;103343;-51
2021/12/15 10:43:36;;;;;;;6.33;5.83;;;;;;;23.01;27.05;95755.19;4960064;28;102774;-51
2021/12/15 10:46:07;;;;;;;6.13;5.73;;;;;;;23.01;26.70;95759.69;4954437;28;103347;-51
2021/12/15 10:48:40;;;;;;;6.33;5.83;;;;;;;22.99;26.77;95760.00;4959540;28;102716;-52
2021/12/15 10:51:31;;;;;;;6.60;6.00;;;;;;;22.98;26.98;95757.63;4960256;28;102711;-51
2021/12/15 10:54:11;;;;;;;6.20;5.70;;;;;;;23.00;26.77;95766.91;4960097;28;102778;-51
2021/12/15 10:56:48;;;;;;;5.77;5.30;;;;;;;22.99;26.84;95757.31;4954201;28;103258;-51
2021/12/15 10:59:15;;;;;;;6.33;5.83;;;;;;;22.99;27.17;95757.31;4961846;28;102692;-52
2021/12/15 11:01:49;;;;;;;5.87;5.47;;;;;;;22.99;27.12;95762.66;4963118;28;102711;-51
2021/12/15 11:04:23;;;;;;;5.53;5.13;;;;;;;23.00;26.84;95760.78;4963321;28;102632;-51
2021/12/15 11:07:25;;;;;;;5.93;5.53;;;;;;;22.98;26.72;95758.41;4963193;28;102633;-51
2021/12/15 11:10:10;;;;;;;6.53;5.93;;;;;;;22.99;26.90;95757.31;4961018;28;103552;-51
2021/12/15 11:12:37;;;;;;;5.70;5.30;;;;;;;22.99;27.04;95753.88;4962035;28;102794;-51
2021/12/15 11:15:19;;;;;;;6.37;5.90;;;;;;;22.98;26.66;95753.06;4962549;28;102765;-51
2021/12/15 11:17:48;;;;;;;6.07;5.67;;;;;;;22.98;26.53;95750.41;4962392;28;102956;-51
2021/12/15 11:20:16;;;;;;;6.43;5.93;;;;;;;22.99;26.99;95749.34;4957432;28;104635;-51
2021/12/15 11:22:49;;;;;;;6.40;5.90;;;;;;;22.98;26.79;95758.41;4963040;28;102665;-51
2021/12/15 11:25:28;;;;;;;7.03;6.53;;;;;;;22.98;26.50;95750.41;4962846;28;102742;-51
2021/12/15 11:28:01;;;;;;;6.60;6.10;;;;;;;22.99;26.84;95753.88;4962201;28;102697;-51
2021/12/15 11:30:38;;;;;;;5.90;5.50;;;;;;;22.99;26.92;95746.66;4957838;28;103338;-51
2021/12/15 11:33:11;;;;;;;6.33;5.83;;;;;;;22.98;27.09;95750.41;4962372;28;102771;-51
2021/12/15 11:35:41;;;;;;;6.37;5.87;;;;;;;22.99;26.81;95754.66;4963208;28;103162;-51
2021/12/15 11:38:13;;;;;;;7.03;6.43;;;;;;;22.99;26.95;95748.53;4960837;28;104567;-51
2021/12/15 11:40:45;;;;;;;6.30;5.80;;;;;;;22.98;26.82;95752.28;4957729;28;104571;-51
2021/12/15 11:43:27;;;;;;;6.80;6.27;;;;;;;22.98;27.12;95753.06;4961184;28;103762;-51
2021/12/15 11:45:53;;;;;;;6.20;5.80;;;;;;;22.99;26.89;95749.34;4963069;28;102725;-51
2021/12/15 11:48:32;;;;;;;7.03;6.53;;;;;;;22.98;26.72;95744.28;4961738;28;104235;-51
2021/12/15 11:51:01;;;;;;;6.07;5.57;;;;;;;22.98;26.71;95750.41;4962566;28;103683;-52
2021/12/15 11:53:46;;;;;;;6.87;6.37;;;;;;;22.99;26.99;95746.66;4956922;28;102704;-51
2021/12/15 11:56:11;;;;;;;6.30;5.80;;;;;;;22.99;26.69;95748.53;4962706;28;102773;-51
2021/12/15 11:58:37;;;;;;;6.40;5.90;;;;;;;22.99;26.95;95749.34;4962102;28;102683;-51
2021/12/15 12:01:03;;;;;;;5.83;5.43;;;;;;;22.99;26.69;95752.00;4961971;28;102928;-51
2021/12/15 12:03:28;;;;;;;6.33;5.83;;;;;;;22.99;26.69;95751.19;4956654;28;102944;-51
2021/12/15 12:05:54;;;;;;;6.10;5.70;;;;;;;22.98;26.60;95747.75;4962470;28;102783;-51
2021/12/15 12:08:19;;;;;;;6.03;5.60;;;;;;;22.96;26.81;95747.25;4961933;28;103742;-51
2021/12/15 12:10:52;;;;;;;6.33;5.83;;;;;;;22.98;26.67;95745.09;4961032;28;102769;-51
2021/12/15 12:13:28;;;;;;;6.40;5.90;;;;;;;22.97;26.89;95746.16;4962240;28;103253;-51
2021/12/15 12:15:59;;;;;;;6.40;5.90;;;;;;;22.98;26.99;95750.41;4960553;28;103180;-51
2021/12/15 12:18:29;;;;;;;5.97;5.57;;;;;;;22.99;26.63;95748.53;4960895;28;103242;-51
2021/12/15 12:21:04;;;;;;;6.30;5.80;;;;;;;22.97;27.03;95738.16;4961992;28;102631;-51
2021/12/15 12:23:31;;;;;;;6.80;6.30;;;;;;;22.99;26.74;95746.66;4961968;28;102676;-51
2021/12/15 12:26:03;;;;;;;7.00;6.50;;;;;;;22.98;26.97;95747.75;4956525;28;102833;-51
2021/12/15 12:28:33;;;;;;;7.00;6.40;;;;;;;22.99;26.64;95737.88;4961544;28;102649;-51
2021/12/15 12:31:05;;;;;;;6.10;5.60;;;;;;;23.00;26.79;95742.13;4961694;28;103352;-51
2021/12/15 12:33:31;;;;;;;6.63;6.13;;;;;;;23.00;26.82;95734.91;4961325;28;102785;-51
2021/12/15 12:36:08;;;;;;;6.43;5.93;;;;;;;23.01;26.63;95738.38;4958239;28;104030;-51
2021/12/15 12:38:36;;;;;;;6.87;6.30;;;;;;;23.00;26.86;95740.25;4960825;28;102805;-51
2021/12/15 12:41:13;;;;;;;6.40;5.90;;;;;;;23.01;26.67;95735.72;4961083;28;102586;-51
2021/12/15 12:43:47;;;;;;;6.40;5.90;;;;;;;23.01;26.67;95725.88;4961835;28;102956;-51
2021/12/15 12:46:40;;;;;;;6.70;6.20;;;;;;;23.01;27.11;95736.53;4962273;28;102690;-51
2021/12/15 13:00:27;;;;;;;6.90;6.30;;;;;;;23.00;27.03;95742.13;4960816;28;102968;-51
2021/12/15 13:03:04;;;;;;;6.50;5.97;;;;;;;23.00;26.51;95742.13;4960886;28;102884;-51